createdAt,value
2018-07-30T00:02:30.128Z,78.65
2018-07-30T00:04:58.726Z,79.00
2018-07-30T00:07:27.381Z,78.87
2018-07-30T00:09:56.561Z,79.19
2018-07-30T00:12:25.161Z,79.37
2018-07-30T00:14:53.659Z,79.25
2018-07-30T00:17:22.277Z,79.83
2018-07-30T00:19:50.910Z,78.78
2018-07-30T00:22:19.494Z,78.60
2018-07-30T00:24:48.017Z,78.47
2018-07-30T00:27:16.614Z,78.31
2018-07-30T00:29:45.446Z,78.02
2018-07-30T00:32:14.132Z,77.66
2018-07-30T00:34:42.768Z,77.29
2018-07-30T00:37:11.502Z,77.57
2018-07-30T00:39:40.085Z,78.39
2018-07-30T00:42:08.723Z,77.05
2018-07-30T00:44:37.865Z,76.80
2018-07-30T00:47:06.359Z,76.62
2018-07-30T00:49:35.034Z,76.61
2018-07-30T00:52:03.716Z,76.76
2018-07-30T00:54:32.344Z,76.42
2018-07-30T00:57:01.087Z,76.80
2018-07-30T00:59:29.776Z,75.89
2018-07-30T01:01:58.268Z,75.89
2018-07-30T01:04:26.870Z,75.38
2018-07-30T01:06:55.625Z,75.35
2018-07-30T01:09:24.312Z,75.26
2018-07-30T01:11:55.786Z,75.46
2018-07-30T01:14:24.585Z,75.60
2018-07-30T01:16:53.233Z,75.67
2018-07-30T01:19:21.740Z,75.87
2018-07-30T01:21:50.331Z,76.18
2018-07-30T01:24:18.895Z,76.36
2018-07-30T01:26:47.478Z,76.83
2018-07-30T01:29:16.148Z,76.83
2018-07-30T01:31:44.649Z,76.86
2018-07-30T01:34:13.260Z,78.09
2018-07-30T01:36:41.902Z,77.98
2018-07-30T01:39:10.586Z,77.36
2018-07-30T01:41:39.197Z,76.99
2018-07-30T01:44:07.766Z,76.70
2018-07-30T01:46:36.353Z,77.08
2018-07-30T01:49:05.178Z,77.82
2018-07-30T01:51:33.770Z,77.80
2018-07-30T01:54:02.396Z,77.04
2018-07-30T01:56:31.070Z,76.94
2018-07-30T01:58:59.655Z,75.83
2018-07-30T02:01:28.443Z,75.07
2018-07-30T02:03:57.128Z,74.37
2018-07-30T02:06:25.809Z,74.32
2018-07-30T02:08:54.604Z,74.08
2018-07-30T02:11:23.275Z,72.85
2018-07-30T02:13:52.276Z,71.53
2018-07-30T02:16:20.908Z,70.87
2018-07-30T02:18:49.551Z,70.70
2018-07-30T02:21:18.238Z,70.30
2018-07-30T02:23:46.747Z,69.74
2018-07-30T02:26:15.499Z,69.55
2018-07-30T02:28:44.289Z,69.18
2018-07-30T02:31:12.973Z,68.65
2018-07-30T02:33:41.556Z,68.02
2018-07-30T02:36:10.226Z,67.06
2018-07-30T02:38:38.771Z,66.31
2018-07-30T02:41:07.409Z,64.81
2018-07-30T02:43:35.927Z,65.27
2018-07-30T02:46:04.576Z,64.82
2018-07-30T02:48:33.256Z,64.75
2018-07-30T02:51:01.872Z,64.54
2018-07-30T02:53:30.366Z,64.52
2018-07-30T02:55:59.006Z,64.12
2018-07-30T02:58:27.589Z,64.40
2018-07-30T03:00:56.315Z,63.72
2018-07-30T03:03:24.960Z,64.10
2018-07-30T03:05:53.597Z,64.35
2018-07-30T03:08:22.148Z,64.16
2018-07-30T03:10:50.874Z,64.59
2018-07-30T03:13:19.496Z,64.58
2018-07-30T03:15:48.180Z,64.47
2018-07-30T03:18:16.826Z,64.49
2018-07-30T03:20:45.393Z,64.42
2018-07-30T03:23:14.033Z,64.31
2018-07-30T03:25:42.570Z,63.78
2018-07-30T03:28:11.118Z,64.14
2018-07-30T03:30:39.678Z,64.23
2018-07-30T03:33:08.346Z,63.99
2018-07-30T03:35:36.886Z,63.90
2018-07-30T03:38:05.426Z,63.56
2018-07-30T03:40:34.216Z,62.84
2018-07-30T03:43:03.003Z,62.49
2018-07-30T03:45:31.689Z,61.55
2018-07-30T03:48:00.229Z,61.70
2018-07-30T03:50:28.818Z,60.04
2018-07-30T03:52:57.352Z,59.92
2018-07-30T03:55:26.012Z,59.83
2018-07-30T03:57:55.272Z,58.96
2018-07-30T04:00:23.936Z,59.27
2018-07-30T04:02:52.590Z,59.16
2018-07-30T04:05:21.218Z,58.50
2018-07-30T04:07:49.805Z,58.15
2018-07-30T04:10:18.390Z,58.01
2018-07-30T04:12:46.966Z,57.69
2018-07-30T04:15:15.547Z,56.83
2018-07-30T04:17:44.175Z,55.93
2018-07-30T04:20:12.696Z,56.38
2018-07-30T04:22:41.353Z,55.75
2018-07-30T04:25:09.880Z,56.86
2018-07-30T04:27:38.463Z,55.60
2018-07-30T04:30:07.103Z,56.63
2018-07-30T04:32:35.684Z,56.79
2018-07-30T04:35:04.575Z,57.41
2018-07-30T04:37:33.157Z,57.18
2018-07-30T04:40:02.355Z,57.74
2018-07-30T04:42:30.936Z,57.21
2018-07-30T04:44:59.574Z,57.49
2018-07-30T04:47:28.206Z,57.34
2018-07-30T04:49:56.734Z,57.30
2018-07-30T04:52:25.282Z,57.02
2018-07-30T04:54:53.902Z,56.05
2018-07-30T04:57:22.540Z,56.00
2018-07-30T04:59:51.120Z,55.71
2018-07-30T05:02:19.719Z,55.72
2018-07-30T05:04:48.331Z,55.27
2018-07-30T05:07:16.919Z,55.23
2018-07-30T05:09:45.555Z,55.89
2018-07-30T05:12:14.359Z,54.53
2018-07-30T05:14:42.972Z,55.06
2018-07-30T05:17:11.611Z,55.08
2018-07-30T05:19:40.384Z,54.61
2018-07-30T05:22:08.847Z,54.56
2018-07-30T05:24:37.420Z,53.53
2018-07-30T05:27:05.907Z,53.88
2018-07-30T05:29:34.782Z,53.97
2018-07-30T05:32:03.518Z,53.25
2018-07-30T05:34:32.059Z,51.93
2018-07-30T05:37:00.686Z,53.73
2018-07-30T05:39:29.269Z,52.04
2018-07-30T05:41:57.952Z,52.46
2018-07-30T05:44:26.492Z,50.81
2018-07-30T05:46:55.118Z,51.05
2018-07-30T05:49:23.699Z,49.59
2018-07-30T05:51:52.386Z,48.24
2018-07-30T05:54:21.070Z,49.49
2018-07-30T05:56:49.614Z,47.11
2018-07-30T05:59:18.218Z,47.80
2018-07-30T06:01:47.127Z,45.54
2018-07-30T06:04:15.686Z,47.52
2018-07-30T06:06:44.171Z,46.54
2018-07-30T06:09:12.727Z,46.58
2018-07-30T06:11:41.501Z,45.57
2018-07-30T06:14:09.978Z,46.57
2018-07-30T06:16:38.624Z,47.11
2018-07-30T06:19:07.206Z,46.37
2018-07-30T06:21:35.806Z,46.23
2018-07-30T06:24:04.432Z,46.69
2018-07-30T06:26:33.178Z,45.00
2018-07-30T06:29:01.743Z,46.26
2018-07-30T06:31:30.255Z,45.78
2018-07-30T06:33:58.918Z,47.00
2018-07-30T06:36:27.594Z,46.72
2018-07-30T06:38:56.129Z,46.55
2018-07-30T06:41:24.767Z,45.91
2018-07-30T06:43:53.290Z,47.05
2018-07-30T06:46:21.808Z,46.70
2018-07-30T06:48:50.407Z,46.96
2018-07-30T06:51:19.092Z,47.28
2018-07-30T06:53:47.618Z,46.71
2018-07-30T06:56:16.205Z,46.59
2018-07-30T06:58:44.778Z,47.07
2018-07-30T07:01:13.525Z,47.25
2018-07-30T07:03:42.287Z,46.89
2018-07-30T07:06:10.828Z,47.20
2018-07-30T07:08:39.478Z,46.82
2018-07-30T07:11:08.164Z,47.25
2018-07-30T07:13:36.782Z,48.33
2018-07-30T07:16:05.537Z,47.51
2018-07-30T07:18:34.144Z,46.75
2018-07-30T07:21:02.723Z,48.08
2018-07-30T07:23:31.828Z,47.64
2018-07-30T07:26:00.379Z,47.63
2018-07-30T07:28:28.882Z,48.01
2018-07-30T07:30:57.544Z,46.91
2018-07-30T07:33:26.167Z,47.57
2018-07-30T07:35:55.427Z,47.98
2018-07-30T07:38:24.009Z,48.36
2018-07-30T07:40:52.548Z,47.40
2018-07-30T07:43:21.176Z,46.62
2018-07-30T07:45:49.800Z,47.93
2018-07-30T07:48:18.587Z,47.45
2018-07-30T07:50:47.245Z,47.46
2018-07-30T07:53:15.765Z,47.66
2018-07-30T07:55:45.067Z,46.55
2018-07-30T07:58:13.751Z,46.69
2018-07-30T08:00:42.388Z,45.97
2018-07-30T08:03:11.015Z,45.75
2018-07-30T08:05:39.599Z,47.18
2018-07-30T08:08:08.483Z,46.49
2018-07-30T08:10:37.064Z,46.06
2018-07-30T08:13:05.705Z,45.83
2018-07-30T08:15:34.402Z,45.54
2018-07-30T08:18:03.127Z,45.91
2018-07-30T08:20:31.705Z,44.59
2018-07-30T08:23:00.348Z,45.61
2018-07-30T08:25:28.948Z,43.97
2018-07-30T08:27:57.561Z,44.74
2018-07-30T08:30:26.299Z,43.72
2018-07-30T08:32:54.960Z,45.33
2018-07-30T08:35:23.528Z,44.29
2018-07-30T08:37:52.148Z,45.50
2018-07-30T08:40:20.755Z,44.13
2018-07-30T08:42:49.366Z,44.13
2018-07-30T08:45:17.999Z,44.42
2018-07-30T08:47:46.613Z,44.22
2018-07-30T08:50:15.164Z,45.12
2018-07-30T08:52:43.851Z,45.00
2018-07-30T08:55:12.638Z,44.31
2018-07-30T08:57:41.323Z,43.87
2018-07-30T09:00:10.477Z,44.35
2018-07-30T09:02:39.631Z,44.22
2018-07-30T09:05:09.528Z,44.33
2018-07-30T09:07:38.419Z,43.54
2018-07-30T09:10:07.766Z,43.38
2018-07-30T09:12:36.901Z,43.33
2018-07-30T09:15:06.167Z,44.49
2018-07-30T09:17:34.780Z,43.62
2018-07-30T09:20:03.692Z,43.97
2018-07-30T09:22:32.711Z,44.04
2018-07-30T09:25:01.316Z,42.74
2018-07-30T09:27:29.955Z,43.14
2018-07-30T09:29:59.251Z,41.59
2018-07-30T09:32:27.903Z,42.55
2018-07-30T09:34:56.517Z,42.66
2018-07-30T09:37:25.100Z,40.38
2018-07-30T09:39:53.723Z,40.73
2018-07-30T09:42:22.369Z,40.76
2018-07-30T09:44:50.987Z,40.87
2018-07-30T09:47:19.946Z,40.90
2018-07-30T09:49:48.837Z,40.45
2018-07-30T09:52:17.522Z,40.87
2018-07-30T09:54:46.205Z,40.67
2018-07-30T09:57:14.789Z,39.57
2018-07-30T09:59:43.334Z,39.63
2018-07-30T10:02:12.012Z,40.20
2018-07-30T10:04:43.919Z,38.63
2018-07-30T10:07:13.687Z,40.94
2018-07-30T10:09:42.247Z,39.30
2018-07-30T10:12:10.820Z,37.84
2018-07-30T10:14:39.784Z,37.97
2018-07-30T10:17:08.403Z,37.99
2018-07-30T10:19:37.667Z,37.62
2018-07-30T10:22:06.458Z,37.94
2018-07-30T10:24:35.083Z,37.15
2018-07-30T10:27:03.774Z,38.58
2018-07-30T10:29:32.360Z,37.30
2018-07-30T10:32:00.931Z,36.41
2018-07-30T10:34:29.636Z,35.29
2018-07-30T10:36:58.259Z,34.73
2018-07-30T10:39:26.887Z,34.05
2018-07-30T10:41:55.874Z,36.39
2018-07-30T10:44:24.520Z,34.69
2018-07-30T10:46:53.205Z,33.63
2018-07-30T10:49:21.892Z,34.57
2018-07-30T10:51:50.604Z,33.73
2018-07-30T10:54:19.207Z,33.62
2018-07-30T10:56:47.756Z,34.00
2018-07-30T10:59:16.380Z,33.65
2018-07-30T11:01:44.971Z,33.93
2018-07-30T11:04:13.592Z,33.68
2018-07-30T11:06:42.278Z,33.48
2018-07-30T11:09:13.802Z,33.07
2018-07-30T11:11:40.159Z,32.12
2018-07-30T11:14:09.360Z,33.18
2018-07-30T11:16:38.134Z,34.10
2018-07-30T11:19:07.086Z,33.76
2018-07-30T11:21:35.750Z,33.31
2018-07-30T11:24:04.451Z,33.00
2018-07-30T11:26:33.006Z,32.88
2018-07-30T11:29:01.576Z,32.14
2018-07-30T11:31:30.074Z,32.28
2018-07-30T11:33:59.391Z,31.97
2018-07-30T11:36:27.933Z,35.62
2018-07-30T11:38:56.515Z,36.54
2018-07-30T11:41:25.146Z,35.45
2018-07-30T11:43:53.786Z,34.95
2018-07-30T11:46:22.398Z,35.92
2018-07-30T11:48:51.152Z,34.33
2018-07-30T11:51:19.739Z,33.88
2018-07-30T11:53:48.321Z,34.38
2018-07-30T11:56:16.847Z,33.55
2018-07-30T11:58:45.488Z,34.20
2018-07-30T12:01:14.228Z,35.31
2018-07-30T12:03:42.845Z,35.11
2018-07-30T12:06:11.749Z,35.89
2018-07-30T12:08:40.441Z,36.34
2018-07-30T12:11:09.064Z,36.82
2018-07-30T12:13:37.704Z,36.18
2018-07-30T12:16:06.227Z,35.89
2018-07-30T12:18:34.811Z,36.12
2018-07-30T12:21:03.451Z,34.82
2018-07-30T12:23:31.990Z,36.50
2018-07-30T12:26:00.563Z,36.34
2018-07-30T12:28:29.131Z,36.68
2018-07-30T12:30:57.695Z,36.89
2018-07-30T12:33:26.361Z,37.04
2018-07-30T12:35:55.359Z,35.35
2018-07-30T12:38:24.049Z,35.90
2018-07-30T12:40:52.638Z,35.65
2018-07-30T12:43:21.263Z,35.41
2018-07-30T12:45:49.831Z,35.81
2018-07-30T12:48:18.477Z,35.62
2018-07-30T12:50:47.151Z,35.82
2018-07-30T12:53:15.658Z,36.19
2018-07-30T12:55:44.231Z,36.51
2018-07-30T12:58:12.863Z,36.43
2018-07-30T13:00:41.494Z,36.96
2018-07-30T13:03:10.076Z,37.44
2018-07-30T13:05:38.583Z,38.62
2018-07-30T13:08:07.163Z,38.58
2018-07-30T13:10:35.928Z,39.36
2018-07-30T13:13:04.511Z,38.98
2018-07-30T13:15:33.126Z,40.59
2018-07-30T13:18:01.719Z,40.90
2018-07-30T13:20:30.363Z,40.70
2018-07-30T13:22:58.951Z,39.23
2018-07-30T13:25:27.568Z,39.52
2018-07-30T13:27:56.314Z,39.16
2018-07-30T13:30:24.958Z,39.43
2018-07-30T13:32:53.546Z,39.21
2018-07-30T13:35:22.227Z,39.76
2018-07-30T13:37:50.855Z,40.71
2018-07-30T13:40:19.536Z,41.42
2018-07-30T13:42:48.221Z,40.92
2018-07-30T13:45:16.804Z,41.38
2018-07-30T13:47:45.349Z,41.18
2018-07-30T13:50:13.970Z,41.08
2018-07-30T13:52:42.656Z,41.84
2018-07-30T13:55:11.444Z,42.32
2018-07-30T13:57:40.125Z,42.91
2018-07-30T14:00:10.291Z,43.27
2018-07-30T14:02:39.181Z,41.75
2018-07-30T14:05:08.812Z,42.24
2018-07-30T14:07:37.683Z,42.31
2018-07-30T14:10:06.977Z,43.07
2018-07-30T14:12:35.619Z,43.14
2018-07-30T14:15:05.199Z,43.36
2018-07-30T14:17:33.912Z,43.14
2018-07-30T14:20:02.599Z,43.31
2018-07-30T14:22:31.207Z,42.68
2018-07-30T14:24:59.705Z,42.52
2018-07-30T14:27:28.404Z,42.82
2018-07-30T14:29:57.030Z,43.51
2018-07-30T14:32:25.636Z,43.48
2018-07-30T14:34:54.298Z,43.45
2018-07-30T14:37:22.822Z,43.21
2018-07-30T14:39:51.465Z,42.66
2018-07-30T14:42:20.094Z,41.82
2018-07-30T14:44:48.651Z,42.21
2018-07-30T14:47:17.317Z,42.14
2018-07-30T14:49:46.001Z,41.25
2018-07-30T14:52:14.537Z,41.90
2018-07-30T14:54:43.119Z,41.88
2018-07-30T14:57:11.750Z,42.41
2018-07-30T14:59:40.470Z,42.50
2018-07-30T15:02:09.230Z,42.15
2018-07-30T15:04:38.421Z,41.54
2018-07-30T15:07:06.978Z,41.91
2018-07-30T15:09:35.639Z,42.33
2018-07-30T15:12:04.314Z,41.98
2018-07-30T15:14:32.844Z,42.01
2018-07-30T15:17:01.542Z,42.46
2018-07-30T15:19:30.246Z,42.10
2018-07-30T15:21:58.746Z,42.65
2018-07-30T15:24:28.107Z,41.81
2018-07-30T15:26:56.691Z,42.08
2018-07-30T15:29:25.376Z,41.94
2018-07-30T15:31:54.061Z,42.06
2018-07-30T15:34:22.823Z,41.96
2018-07-30T15:36:51.491Z,42.46
2018-07-30T15:39:20.118Z,42.60
2018-07-30T15:41:48.678Z,42.43
2018-07-30T15:44:17.283Z,41.91
2018-07-30T15:46:45.869Z,42.46
2018-07-30T15:49:14.404Z,42.08
2018-07-30T15:51:43.094Z,42.73
2018-07-30T15:54:11.663Z,42.61
2018-07-30T15:56:40.255Z,42.04
2018-07-30T15:59:08.877Z,41.95
2018-07-30T16:01:37.403Z,41.40
2018-07-30T16:04:06.257Z,42.14
2018-07-30T16:06:34.755Z,42.04
2018-07-30T16:09:03.624Z,42.81
2018-07-30T16:11:32.208Z,42.63
2018-07-30T16:14:00.742Z,42.50
2018-07-30T16:16:29.298Z,42.58
2018-07-30T16:18:58.020Z,42.47
2018-07-30T16:21:26.644Z,41.82
2018-07-30T16:23:55.247Z,42.73
2018-07-30T16:26:24.338Z,42.14
2018-07-30T16:28:53.154Z,42.62
2018-07-30T16:31:21.843Z,42.89
2018-07-30T16:33:50.412Z,42.85
2018-07-30T16:36:19.006Z,43.03
2018-07-30T16:38:47.644Z,42.49
2018-07-30T16:41:16.171Z,43.19
2018-07-30T16:43:44.912Z,42.89
2018-07-30T16:46:13.804Z,43.12
2018-07-30T16:48:42.439Z,43.59
2018-07-30T16:51:11.227Z,43.15
2018-07-30T16:53:39.905Z,43.15
2018-07-30T16:56:08.647Z,43.02
2018-07-30T16:58:37.189Z,42.87
2018-07-30T17:01:05.913Z,42.97
2018-07-30T17:03:34.546Z,42.99
2018-07-30T17:06:03.085Z,43.26
2018-07-30T17:08:31.719Z,43.17
2018-07-30T17:11:00.271Z,43.01
2018-07-30T17:13:28.786Z,43.18
2018-07-30T17:15:57.350Z,43.27
2018-07-30T17:18:27.530Z,42.43
2018-07-30T17:20:56.113Z,43.15
2018-07-30T17:23:25.394Z,42.43
2018-07-30T17:25:54.898Z,42.68
2018-07-30T17:28:23.415Z,42.65
2018-07-30T17:30:52.084Z,42.73
2018-07-30T17:33:20.683Z,41.81
2018-07-30T17:35:50.783Z,41.80
2018-07-30T17:38:20.331Z,42.08
2018-07-30T17:40:48.999Z,41.65
2018-07-30T17:43:17.660Z,42.13
2018-07-30T17:45:46.807Z,42.02
2018-07-30T17:48:15.323Z,41.53
2018-07-30T17:50:43.935Z,42.04
2018-07-30T17:53:12.635Z,41.81
2018-07-30T17:55:41.215Z,42.39
2018-07-30T17:58:09.772Z,40.79
2018-07-30T18:00:38.354Z,41.73
2018-07-30T18:03:07.094Z,41.58
2018-07-30T18:05:35.810Z,41.30
2018-07-30T18:08:04.518Z,40.83
2018-07-30T18:10:33.147Z,40.69
2018-07-30T18:13:01.885Z,41.58
2018-07-30T18:15:30.671Z,41.77
2018-07-30T18:17:59.171Z,41.51
2018-07-30T18:20:27.690Z,41.24
2018-07-30T18:22:56.330Z,41.09
2018-07-30T18:25:25.587Z,41.12
2018-07-30T18:27:54.123Z,41.63
2018-07-30T18:30:22.787Z,42.09
2018-07-30T18:32:51.418Z,41.94
2018-07-30T18:35:19.991Z,40.97
2018-07-30T18:37:48.559Z,40.51
2018-07-30T18:40:17.154Z,40.56
2018-07-30T18:42:45.908Z,41.55
2018-07-30T18:45:14.514Z,40.68
2018-07-30T18:47:43.094Z,40.53
2018-07-30T18:50:11.798Z,40.88
2018-07-30T18:52:40.359Z,41.12
2018-07-30T18:55:08.879Z,40.88
2018-07-30T18:57:37.417Z,41.39
2018-07-30T19:00:06.719Z,41.16
2018-07-30T19:02:35.281Z,40.98
2018-07-30T19:05:04.130Z,41.22
2018-07-30T19:07:32.755Z,41.28
2018-07-30T19:10:01.337Z,42.24
2018-07-30T19:12:29.936Z,41.65
2018-07-30T19:14:58.709Z,41.85
2018-07-30T19:17:27.393Z,42.61
2018-07-30T19:19:55.900Z,42.96
2018-07-30T19:22:24.487Z,43.29
2018-07-30T19:24:52.975Z,43.63
2018-07-30T19:27:21.622Z,43.24
2018-07-30T19:29:50.350Z,43.23
2018-07-30T19:32:18.997Z,43.40
2018-07-30T19:34:47.685Z,43.59
2018-07-30T19:37:16.187Z,43.74
2018-07-30T19:39:44.974Z,43.90
2018-07-30T19:42:13.490Z,43.98
2018-07-30T19:44:42.049Z,45.17
2018-07-30T19:47:10.623Z,45.47
2018-07-30T19:49:39.143Z,45.12
2018-07-30T19:52:08.680Z,45.79
2018-07-30T19:54:37.970Z,46.02
2018-07-30T19:57:06.557Z,46.26
2018-07-30T19:59:35.060Z,46.39
2018-07-30T20:02:03.775Z,47.08
2018-07-30T20:04:32.363Z,47.45
2018-07-30T20:07:01.100Z,48.02
2018-07-30T20:09:29.788Z,47.54
2018-07-30T20:11:58.391Z,48.19
2018-07-30T20:14:27.018Z,48.74
2018-07-30T20:16:55.612Z,48.48
2018-07-30T20:19:24.220Z,49.09
2018-07-30T20:21:52.823Z,49.34
2018-07-30T20:24:21.589Z,49.77
2018-07-30T20:26:50.138Z,50.73
2018-07-30T20:29:18.755Z,50.35
2018-07-30T20:31:47.255Z,51.08
2018-07-30T20:34:15.839Z,51.10
2018-07-30T20:36:44.430Z,51.97
2018-07-30T20:39:13.043Z,51.84
2018-07-30T20:41:41.776Z,52.03
2018-07-30T20:44:10.457Z,52.62
2018-07-30T20:46:39.199Z,52.88
2018-07-30T20:49:07.746Z,53.34
2018-07-30T20:51:37.027Z,53.44
2018-07-30T20:54:06.142Z,52.99
2018-07-30T20:56:34.805Z,53.46
2018-07-30T20:59:03.594Z,52.98
2018-07-30T21:01:32.176Z,54.19
2018-07-30T21:04:00.674Z,54.03
2018-07-30T21:06:29.444Z,54.37
2018-07-30T21:08:58.031Z,53.58
2018-07-30T21:11:26.680Z,53.69
2018-07-30T21:13:55.240Z,53.90
2018-07-30T21:16:24.594Z,53.52
2018-07-30T21:18:53.231Z,54.00
2018-07-30T21:21:21.999Z,54.17
2018-07-30T21:23:50.659Z,53.82
2018-07-30T21:26:19.170Z,54.77
2018-07-30T21:28:47.816Z,53.53
2018-07-30T21:31:16.400Z,54.80
2018-07-30T21:33:44.983Z,53.87
2018-07-30T21:36:13.565Z,53.60
2018-07-30T21:38:42.251Z,53.26
2018-07-30T21:41:10.777Z,52.29
2018-07-30T21:43:39.519Z,52.47
2018-07-30T21:46:08.028Z,52.39
2018-07-30T21:48:36.602Z,52.67
2018-07-30T21:51:05.094Z,52.93
2018-07-30T21:53:33.693Z,52.54
2018-07-30T21:56:02.330Z,52.68
2018-07-30T21:58:31.017Z,52.07
2018-07-30T22:00:59.712Z,52.36
2018-07-30T22:03:28.283Z,52.38
2018-07-30T22:06:01.783Z,51.92
2018-07-30T22:08:30.570Z,52.45
2018-07-30T22:10:59.240Z,52.59
2018-07-30T22:13:27.785Z,52.72
2018-07-30T22:15:56.783Z,53.35
2018-07-30T22:18:25.414Z,53.41
2018-07-30T22:20:53.997Z,53.69
2018-07-30T22:23:22.686Z,54.22
2018-07-30T22:25:51.361Z,53.95
2018-07-30T22:28:20.155Z,53.95
2018-07-30T22:30:48.760Z,55.10
2018-07-30T22:33:17.526Z,54.78
2018-07-30T22:35:46.128Z,54.62
2018-07-30T22:38:14.707Z,54.68
2018-07-30T22:40:43.225Z,55.63
2018-07-30T22:43:11.856Z,54.90
2018-07-30T22:45:40.690Z,55.93
2018-07-30T22:48:09.274Z,55.18
2018-07-30T22:50:37.812Z,55.97
2018-07-30T22:53:06.315Z,55.72
2018-07-30T22:55:34.976Z,56.13
2018-07-30T22:58:03.559Z,56.39
2018-07-30T23:00:32.090Z,56.64
2018-07-30T23:03:00.627Z,56.19
2018-07-30T23:05:29.294Z,57.93
2018-07-30T23:07:57.886Z,56.81
2018-07-30T23:10:26.476Z,56.28
2018-07-30T23:12:55.160Z,56.81
2018-07-30T23:15:23.678Z,57.07
2018-07-30T23:17:52.428Z,57.50
2018-07-30T23:20:20.950Z,57.09
2018-07-30T23:22:49.547Z,57.29
2018-07-30T23:25:18.051Z,56.81
2018-07-30T23:27:46.606Z,57.90
2018-07-30T23:30:15.136Z,57.87
2018-07-30T23:32:43.720Z,57.37
2018-07-30T23:35:12.337Z,57.27
2018-07-30T23:37:41.493Z,57.20
2018-07-30T23:40:10.183Z,57.62
2018-07-30T23:42:38.768Z,56.79
2018-07-30T23:45:07.386Z,56.78
2018-07-30T23:47:36.036Z,57.32
2018-07-30T23:50:04.624Z,56.77
2018-07-30T23:52:33.202Z,56.65
2018-07-30T23:55:01.888Z,56.67
2018-07-30T23:57:30.367Z,56.77
2018-07-30T23:59:58.862Z,56.46
